Time,TemperatureF,DewpointF,PressureIn,WindDirection,WindDirectionDegrees,WindSpeedMPH,WindSpeedGustMPH,Humidity,HourlyPrecipIn,Conditions,Clouds,dailyrainin,SoftwareType,DateUTC
2013-02-23 00:50:00,31.1,24.7,30.32,SSE,150,0.0,0.0,77,0.00,,,0.00,Wunderground v.1.15,2013-02-23 05:50:00,
2013-02-23 01:00:00,31.0,24.6,30.31,SSE,150,0.0,0.0,77,0.00,,,0.00,Wunderground v.1.15,2013-02-23 06:00:00,
2013-02-23 01:40:00,30.2,24.5,30.30,SSE,150,0.0,0.0,79,0.00,,,0.00,Wunderground v.1.15,2013-02-23 06:40:00,
2013-02-23 02:20:00,29.1,24.0,30.29,SSE,150,0.0,0.0,81,0.00,,,0.00,Wunderground v.1.15,2013-02-23 07:20:00,
2013-02-23 02:51:00,30.0,24.9,30.29,SSE,150,0.0,0.0,81,0.00,,,0.00,Wunderground v.1.15,2013-02-23 07:51:00,
2013-02-23 03:00:00,29.9,24.8,30.28,SSE,150,0.0,0.0,81,0.00,,,0.00,Wunderground v.1.15,2013-02-23 08:00:00,
2013-02-23 03:10:00,29.9,24.8,30.28,SSE,150,0.0,0.0,81,0.00,,,0.00,Wunderground v.1.15,2013-02-23 08:10:00,
2013-02-23 03:40:00,30.6,25.2,30.27,SSE,150,0.0,0.0,80,0.00,,,0.00,Wunderground v.1.15,2013-02-23 08:40:00,
2013-02-23 03:50:00,31.0,25.2,30.27,SSE,150,0.0,0.0,79,0.00,,,0.00,Wunderground v.1.15,2013-02-23 08:50:00,
2013-02-23 04:00:00,31.2,25.4,30.27,SSE,150,0.0,0.0,79,0.00,,,0.00,Wunderground v.1.15,2013-02-23 09:00:00,
2013-02-23 04:30:00,30.9,25.5,30.26,SSE,150,0.0,0.0,80,0.00,,,0.00,Wunderground v.1.15,2013-02-23 09:30:00,
2013-02-23 05:30:00,31.2,25.7,30.25,SSE,150,0.0,0.0,80,0.00,,,0.00,Wunderground v.1.15,2013-02-23 10:30:00,
2013-02-23 05:50:00,31.2,25.7,30.25,SSE,150,0.0,0.0,80,0.00,,,0.00,Wunderground v.1.15,2013-02-23 10:50:00,
2013-02-23 06:00:00,31.2,25.4,30.26,SSE,150,0.0,0.0,79,0.00,,,0.00,Wunderground v.1.15,2013-02-23 11:00:00,
2013-02-23 06:10:00,31.4,25.9,30.25,SSE,150,0.0,0.0,80,0.00,,,0.00,Wunderground v.1.15,2013-02-23 11:10:00,
2013-02-23 06:20:00,31.6,25.8,30.25,SSE,150,0.0,0.0,79,0.00,,,0.00,Wunderground v.1.15,2013-02-23 11:20:00,
2013-02-23 07:00:00,31.5,26.0,30.25,SSE,150,0.0,0.0,80,0.00,,,0.00,Wunderground v.1.15,2013-02-23 12:00:00,
2013-02-23 07:20:00,31.8,26.0,30.24,SSE,150,0.0,0.0,79,0.00,,,0.00,Wunderground v.1.15,2013-02-23 12:20:00,
2013-02-23 08:00:00,33.7,27.3,30.24,SSE,150,0.0,0.0,77,0.00,,,0.00,Wunderground v.1.15,2013-02-23 13:00:00,
2013-02-23 08:10:00,33.8,27.0,30.24,SSE,150,0.0,1.0,76,0.00,,,0.00,Wunderground v.1.15,2013-02-23 13:10:00,
2013-02-23 08:30:00,34.1,27.3,30.24,SSE,150,0.0,0.0,76,0.00,,,0.00,Wunderground v.1.15,2013-02-23 13:30:00,
2013-02-23 09:10:00,34.5,28.3,30.22,SSE,150,0.0,0.0,78,0.00,,,0.00,Wunderground v.1.15,2013-02-23 14:10:00,
2013-02-23 09:50:00,35.6,28.8,30.21,SE,125,2.0,4.0,76,0.00,,,0.00,Wunderground v.1.15,2013-02-23 14:50:00,
2013-02-23 10:00:00,35.7,28.6,30.21,SW,227,3.0,3.0,75,0.00,,,0.00,Wunderground v.1.15,2013-02-23 15:00:00,
2013-02-23 10:20:00,36.1,28.6,30.20,SSE,152,1.0,1.0,74,0.00,,,0.00,Wunderground v.1.15,2013-02-23 15:20:00,
2013-02-23 10:30:00,36.4,28.6,30.20,SSW,197,3.0,3.0,73,0.00,,,0.00,Wunderground v.1.15,2013-02-23 15:30:00,
2013-02-23 10:40:00,36.3,28.5,30.19,South,189,4.0,4.0,73,0.00,,,0.00,Wunderground v.1.15,2013-02-23 15:40:00,
2013-02-23 11:01:00,36.4,28.6,30.19,South,178,5.0,5.0,73,0.00,,,0.00,Wunderground v.1.15,2013-02-23 16:01:00,
2013-02-23 11:10:00,36.6,28.4,30.18,South,191,3.0,4.0,72,0.00,,,0.00,Wunderground v.1.15,2013-02-23 16:10:00,
2013-02-23 11:20:00,36.8,28.6,30.17,SSE,156,3.0,5.0,72,0.00,,,0.00,Wunderground v.1.15,2013-02-23 16:20:00,
2013-02-23 11:30:00,36.8,28.6,30.17,SE,129,4.0,6.0,72,0.00,,,0.00,Wunderground v.1.15,2013-02-23 16:30:00,
2013-02-23 11:41:00,37.0,28.8,30.17,ESE,120,3.0,3.0,72,0.00,,,0.00,Wunderground v.1.15,2013-02-23 16:41:00,
2013-02-23 12:20:00,37.7,28.8,30.14,South,176,3.0,3.0,70,0.00,,,0.00,Wunderground v.1.15,2013-02-23 17:20:00,
2013-02-23 12:30:00,37.8,28.9,30.14,South,179,3.0,3.0,70,0.00,,,0.00,Wunderground v.1.15,2013-02-23 17:30:00,
2013-02-23 12:40:00,37.7,28.8,30.14,SSE,148,4.0,4.0,70,0.00,,,0.00,Wunderground v.1.15,2013-02-23 17:40:00,
2013-02-23 12:50:00,37.7,28.8,30.13,SSW,195,4.0,4.0,70,0.00,,,0.00,Wunderground v.1.15,2013-02-23 17:50:00,
2013-02-23 13:20:00,38.3,29.4,30.13,SSE,151,3.0,4.0,70,0.00,,,0.00,Wunderground v.1.15,2013-02-23 18:20:00,
2013-02-23 13:30:00,38.3,29.4,30.13,East,89,3.0,3.0,70,0.00,,,0.00,Wunderground v.1.15,2013-02-23 18:30:00,
2013-02-23 14:10:00,38.3,29.7,30.12,South,182,3.0,3.0,71,0.00,,,0.00,Wunderground v.1.15,2013-02-23 19:10:00,
2013-02-23 14:30:00,38.0,29.8,30.11,SSE,163,3.0,3.0,72,0.00,,,0.00,Wunderground v.1.15,2013-02-23 19:30:00,
2013-02-23 14:40:00,38.1,29.9,30.10,South,171,3.0,3.0,72,0.00,,,0.00,Wunderground v.1.15,2013-02-23 19:40:00,
2013-02-23 15:00:00,38.0,30.4,30.10,SE,130,3.0,3.0,74,0.00,,,0.00,Wunderground v.1.15,2013-02-23 20:00:00,
2013-02-23 15:10:00,37.9,30.7,30.10,SSE,153,2.0,2.0,75,0.00,,,0.00,Wunderground v.1.15,2013-02-23 20:10:00,
2013-02-23 15:20:00,38.0,31.1,30.10,SE,129,2.0,2.0,76,0.00,,,0.00,Wunderground v.1.15,2013-02-23 20:20:00,
2013-02-23 15:30:00,37.9,31.0,30.09,East,90,1.0,3.0,76,0.00,,,0.00,Wunderground v.1.15,2013-02-23 20:30:00,
2013-02-23 15:40:00,37.9,31.3,30.09,South,175,2.0,2.0,77,0.00,,,0.00,Wunderground v.1.15,2013-02-23 20:40:00,
2013-02-23 15:52:00,37.9,31.3,30.08,ESE,110,1.0,1.0,77,0.00,,,0.00,Wunderground v.1.15,2013-02-23 20:52:00,
2013-02-23 16:02:00,37.9,31.0,30.07,ESE,106,2.0,2.0,76,0.00,,,0.00,Wunderground v.1.15,2013-02-23 21:02:00,
2013-02-23 16:12:00,37.9,30.7,30.07,SE,140,1.0,2.0,75,0.00,,,0.00,Wunderground v.1.15,2013-02-23 21:12:00,
2013-02-23 16:22:00,37.9,30.4,30.08,South,181,2.0,2.0,74,0.00,,,0.00,Wunderground v.1.15,2013-02-23 21:22:00,
2013-02-23 16:32:00,37.7,30.5,30.08,ESE,116,2.0,2.0,75,0.00,,,0.00,Wunderground v.1.15,2013-02-23 21:32:00,
2013-02-23 16:41:00,37.5,30.9,30.07,ESE,106,3.0,3.0,77,0.00,,,0.00,Wunderground v.1.15,2013-02-23 21:41:00,
2013-02-23 16:52:00,37.4,30.8,30.07,ESE,122,1.0,2.0,77,0.00,,,0.00,Wunderground v.1.15,2013-02-23 21:52:00,
2013-02-23 17:02:00,37.3,31.1,30.06,South,171,2.0,2.0,78,0.00,,,0.00,Wunderground v.1.15,2013-02-23 22:02:00,
2013-02-23 17:12:00,37.2,31.3,30.06,SE,129,1.0,1.0,79,0.00,,,0.00,Wunderground v.1.15,2013-02-23 22:12:00,
2013-02-23 17:21:00,37.1,31.2,30.06,East,98,2.0,2.0,79,0.00,,,0.00,Wunderground v.1.15,2013-02-23 22:21:00,
2013-02-23 17:32:00,37.0,31.1,30.06,ESE,107,2.0,2.0,79,0.00,,,0.00,Wunderground v.1.15,2013-02-23 22:32:00,
2013-02-23 17:51:00,36.6,31.3,30.06,ESE,111,1.0,1.0,81,0.00,,,0.00,Wunderground v.1.15,2013-02-23 22:51:00,
2013-02-23 18:11:00,35.2,31.7,30.05,East,96,1.0,1.0,87,0.00,,,0.00,Wunderground v.1.15,2013-02-23 23:11:00,
2013-02-23 18:21:00,34.8,31.6,30.05,SE,142,1.0,1.0,88,0.00,,,0.00,Wunderground v.1.15,2013-02-23 23:21:00,
2013-02-23 18:32:00,34.4,31.5,30.05,SE,124,0.0,1.0,89,0.00,,,0.00,Wunderground v.1.15,2013-02-23 23:32:00,
2013-02-23 18:42:00,34.2,31.6,30.04,SE,142,1.0,1.0,90,0.00,,,0.00,Wunderground v.1.15,2013-02-23 23:42:00,
2013-02-23 18:52:00,33.9,31.6,30.04,South,171,0.0,0.0,91,0.00,,,0.00,Wunderground v.1.15,2013-02-23 23:52:00,
2013-02-23 19:01:00,33.9,31.6,30.03,SE,134,0.0,0.0,91,0.00,,,0.00,Wunderground v.1.15,2013-02-24 00:01:00,
2013-02-23 19:11:00,33.8,31.7,30.03,SSE,150,0.0,0.0,92,0.00,,,0.00,Wunderground v.1.15,2013-02-24 00:11:00,
2013-02-23 19:32:00,33.9,31.8,30.03,ESE,120,0.0,0.0,92,0.00,,,0.00,Wunderground v.1.15,2013-02-24 00:32:00,
2013-02-23 19:42:00,33.9,31.8,30.04,ESE,120,0.0,0.0,92,0.00,,,0.01,Wunderground v.1.15,2013-02-24 00:42:00,
2013-02-23 19:52:00,33.9,31.8,30.04,ESE,120,0.0,0.0,92,0.00,,,0.01,Wunderground v.1.15,2013-02-24 00:52:00,
2013-02-23 20:01:00,34.2,32.1,30.04,ESE,120,0.0,0.0,92,0.00,,,0.01,Wunderground v.1.15,2013-02-24 01:01:00,
2013-02-23 20:12:00,33.9,31.6,30.02,ESE,120,0.0,0.0,91,0.00,,,0.02,Wunderground v.1.15,2013-02-24 01:12:00,
2013-02-23 20:31:00,33.8,31.7,30.02,ESE,122,0.0,0.0,92,0.00,,,0.02,Wunderground v.1.15,2013-02-24 01:31:00,
2013-02-23 21:02:00,33.5,31.4,30.01,ESE,122,0.0,0.0,92,0.00,,,0.03,Wunderground v.1.15,2013-02-24 02:02:00,
2013-02-23 21:12:00,33.6,31.5,30.00,ESE,122,0.0,0.0,92,0.00,,,0.03,Wunderground v.1.15,2013-02-24 02:12:00,
2013-02-23 21:22:00,33.5,31.7,29.98,ESE,122,0.0,0.0,93,0.00,,,0.03,Wunderground v.1.15,2013-02-24 02:22:00,
2013-02-23 21:42:00,33.7,31.9,29.98,ESE,122,0.0,0.0,93,0.00,,,0.04,Wunderground v.1.15,2013-02-24 02:42:00,
2013-02-23 21:52:00,33.6,31.8,29.97,ESE,122,0.0,0.0,93,0.00,,,0.04,Wunderground v.1.15,2013-02-24 02:52:00,
2013-02-23 22:12:00,33.4,31.6,29.97,ESE,122,0.0,0.0,93,0.00,,,0.04,Wunderground v.1.15,2013-02-24 03:12:00,
2013-02-23 22:22:00,33.3,31.5,29.96,ESE,122,0.0,0.0,93,0.00,,,0.04,Wunderground v.1.15,2013-02-24 03:22:00,
2013-02-23 22:32:00,33.3,31.5,29.95,ESE,122,0.0,0.0,93,0.00,,,0.04,Wunderground v.1.15,2013-02-24 03:32:00,
2013-02-23 22:42:00,33.1,31.6,29.96,NNE,28,0.0,1.0,94,0.00,,,0.04,Wunderground v.1.15,2013-02-24 03:42:00,
2013-02-23 23:01:00,33.0,31.5,29.94,NNE,27,0.0,0.0,94,0.00,,,0.05,Wunderground v.1.15,2013-02-24 04:01:00,
2013-02-23 23:31:00,33.2,31.7,29.93,ENE,65,0.0,0.0,94,0.00,,,0.06,Wunderground v.1.15,2013-02-24 04:31:00,
2013-02-23 23:52:00,33.1,31.6,29.92,NE,40,0.0,0.0,94,0.00,,,0.06,Wunderground v.1.15,2013-02-24 04:52:00,